sensor_id;sensor_type;location;lat;lon;timestamp;pressure;altitude;pressure_sealevel;temperature;humidity
60676;BME280;46716;38.014;-7.874;2022-07-06T00:01:15;100235.59;;;18.73;88.23
60676;BME280;46716;38.014;-7.874;2022-07-06T00:03:16;100224.28;;;18.69;89.00
60676;BME280;46716;38.014;-7.874;2022-07-06T00:05:17;100237.56;;;18.71;88.82
60676;BME280;46716;38.014;-7.874;2022-07-06T00:07:18;100235.00;;;18.69;88.80
60676;BME280;46716;38.014;-7.874;2022-07-06T00:09:20;100232.53;;;18.66;88.87
60676;BME280;46716;38.014;-7.874;2022-07-06T00:11:21;100242.03;;;18.70;89.05
60676;BME280;46716;38.014;-7.874;2022-07-06T00:13:22;100237.16;;;18.64;88.77
60676;BME280;46716;38.014;-7.874;2022-07-06T00:15:23;100222.31;;;18.60;88.78
60676;BME280;46716;38.014;-7.874;2022-07-06T00:17:24;100230.09;;;18.63;89.01
60676;BME280;46716;38.014;-7.874;2022-07-06T00:19:25;100234.34;;;18.66;88.84
60676;BME280;46716;38.014;-7.874;2022-07-06T00:21:26;100230.22;;;18.62;88.90
60676;BME280;46716;38.014;-7.874;2022-07-06T00:23:27;100237.47;;;18.60;88.64
60676;BME280;46716;38.014;-7.874;2022-07-06T00:25:27;100231.75;;;18.53;88.84
60676;BME280;46716;38.014;-7.874;2022-07-06T00:27:28;100231.63;;;18.54;89.25
60676;BME280;46716;38.014;-7.874;2022-07-06T00:29:29;100229.19;;;18.51;89.26
60676;BME280;46716;38.014;-7.874;2022-07-06T00:31:30;100227.31;;;18.40;89.42
60676;BME280;46716;38.014;-7.874;2022-07-06T00:33:31;100234.81;;;18.35;89.69
60676;BME280;46716;38.014;-7.874;2022-07-06T00:35:32;100236.97;;;18.30;90.41
60676;BME280;46716;38.014;-7.874;2022-07-06T00:37:33;100222.38;;;18.10;90.65
60676;BME280;46716;38.014;-7.874;2022-07-06T00:39:34;100227.63;;;17.98;91.22
60676;BME280;46716;38.014;-7.874;2022-07-06T00:41:36;100224.66;;;17.90;92.07
60676;BME280;46716;38.014;-7.874;2022-07-06T00:43:54;100220.84;;;17.81;92.39
60676;BME280;46716;38.014;-7.874;2022-07-06T00:45:58;100226.28;;;17.79;92.61
60676;BME280;46716;38.014;-7.874;2022-07-06T00:47:59;100220.84;;;17.81;92.69
60676;BME280;46716;38.014;-7.874;2022-07-06T00:50:01;100237.81;;;17.80;92.67
60676;BME280;46716;38.014;-7.874;2022-07-06T00:52:20;100222.13;;;17.62;93.51
60676;BME280;46716;38.014;-7.874;2022-07-06T00:54:21;100221.06;;;17.52;94.56
60676;BME280;46716;38.014;-7.874;2022-07-06T00:56:23;100221.19;;;17.37;96.04
60676;BME280;46716;38.014;-7.874;2022-07-06T00:58:24;100224.38;;;17.29;96.75
60676;BME280;46716;38.014;-7.874;2022-07-06T01:00:26;100235.03;;;17.29;96.90
60676;BME280;46716;38.014;-7.874;2022-07-06T01:02:33;100217.34;;;17.15;97.71
60676;BME280;46716;38.014;-7.874;2022-07-06T01:04:34;100229.06;;;17.13;98.36
60676;BME280;46716;38.014;-7.874;2022-07-06T01:06:35;100217.16;;;17.04;98.71
60676;BME280;46716;38.014;-7.874;2022-07-06T01:08:38;100223.97;;;17.10;98.73
60676;BME280;46716;38.014;-7.874;2022-07-06T01:10:38;100214.59;;;17.02;99.77
60676;BME280;46716;38.014;-7.874;2022-07-06T01:12:41;100229.81;;;17.15;99.20
60676;BME280;46716;38.014;-7.874;2022-07-06T01:14:42;100224.38;;;17.16;99.46
60676;BME280;46716;38.014;-7.874;2022-07-06T01:16:44;100225.88;;;17.21;98.63
60676;BME280;46716;38.014;-7.874;2022-07-06T01:18:45;100223.19;;;17.21;99.25
60676;BME280;46716;38.014;-7.874;2022-07-06T01:20:46;100221.28;;;17.23;99.11
60676;BME280;46716;38.014;-7.874;2022-07-06T01:22:48;100232.59;;;17.26;99.05
60676;BME280;46716;38.014;-7.874;2022-07-06T01:24:50;100225.75;;;17.22;98.75
60676;BME280;46716;38.014;-7.874;2022-07-06T01:26:51;100218.28;;;17.14;99.04
60676;BME280;46716;38.014;-7.874;2022-07-06T01:28:52;100231.84;;;17.24;99.32
60676;BME280;46716;38.014;-7.874;2022-07-06T01:30:53;100224.16;;;17.19;99.01
60676;BME280;46716;38.014;-7.874;2022-07-06T01:32:54;100227.25;;;17.26;98.98
60676;BME280;46716;38.014;-7.874;2022-07-06T01:34:55;100237.41;;;17.34;98.71
60676;BME280;46716;38.014;-7.874;2022-07-06T01:36:57;100229.41;;;17.34;98.55
60676;BME280;46716;38.014;-7.874;2022-07-06T01:38:58;100232.63;;;17.39;98.43
60676;BME280;46716;38.014;-7.874;2022-07-06T01:41:05;100230.88;;;17.38;97.83
60676;BME280;46716;38.014;-7.874;2022-07-06T01:43:05;100227.06;;;17.42;97.98
60676;BME280;46716;38.014;-7.874;2022-07-06T01:45:08;100221.72;;;17.42;97.57
60676;BME280;46716;38.014;-7.874;2022-07-06T01:47:11;100224.69;;;17.51;97.42
60676;BME280;46716;38.014;-7.874;2022-07-06T01:49:14;100232.38;;;17.55;97.15
60676;BME280;46716;38.014;-7.874;2022-07-06T01:51:15;100226.41;;;17.52;96.88
60676;BME280;46716;38.014;-7.874;2022-07-06T01:53:18;100212.66;;;17.45;97.13
60676;BME280;46716;38.014;-7.874;2022-07-06T01:55:19;100220.22;;;17.51;97.03
60676;BME280;46716;38.014;-7.874;2022-07-06T01:57:20;100233.97;;;17.58;97.33
60676;BME280;46716;38.014;-7.874;2022-07-06T01:59:22;100214.56;;;17.56;97.78
60676;BME280;46716;38.014;-7.874;2022-07-06T02:01:24;100221.06;;;17.65;97.49
60676;BME280;46716;38.014;-7.874;2022-07-06T02:03:25;100209.31;;;17.67;97.32
60676;BME280;46716;38.014;-7.874;2022-07-06T02:05:26;100215.81;;;17.76;97.22
60676;BME280;46716;38.014;-7.874;2022-07-06T02:07:27;100200.88;;;17.74;96.72
60676;BME280;46716;38.014;-7.874;2022-07-06T02:09:28;100202.13;;;17.81;96.80
60676;BME280;46716;38.014;-7.874;2022-07-06T02:11:29;100203.28;;;17.90;96.51
60676;BME280;46716;38.014;-7.874;2022-07-06T02:13:30;100200.28;;;17.94;96.37
60676;BME280;46716;38.014;-7.874;2022-07-06T02:15:31;100190.97;;;18.00;96.28
60676;BME280;46716;38.014;-7.874;2022-07-06T02:17:32;100203.59;;;18.11;95.87
60676;BME280;46716;38.014;-7.874;2022-07-06T02:19:32;100199.09;;;18.12;95.19
60676;BME280;46716;38.014;-7.874;2022-07-06T02:21:33;100201.53;;;18.15;94.96
60676;BME280;46716;38.014;-7.874;2022-07-06T02:23:34;100178.47;;;18.01;94.62
60676;BME280;46716;38.014;-7.874;2022-07-06T02:25:35;100197.47;;;18.09;94.62
60676;BME280;46716;38.014;-7.874;2022-07-06T02:27:36;100194.25;;;18.04;94.74
60676;BME280;46716;38.014;-7.874;2022-07-06T02:29:40;100198.66;;;18.05;95.06
60676;BME280;46716;38.014;-7.874;2022-07-06T02:31:42;100196.09;;;18.03;94.95
60676;BME280;46716;38.014;-7.874;2022-07-06T02:33:44;100188.53;;;17.97;95.03
60676;BME280;46716;38.014;-7.874;2022-07-06T02:35:46;100191.41;;;17.94;95.39
60676;BME280;46716;38.014;-7.874;2022-07-06T02:37:47;100196.97;;;17.91;95.55
60676;BME280;46716;38.014;-7.874;2022-07-06T02:39:48;100206.03;;;18.01;95.84
60676;BME280;46716;38.014;-7.874;2022-07-06T02:41:49;100193.44;;;18.03;95.96
60676;BME280;46716;38.014;-7.874;2022-07-06T02:43:50;100179.97;;;18.05;95.94
60676;BME280;46716;38.014;-7.874;2022-07-06T02:45:51;100184.31;;;18.06;95.89
60676;BME280;46716;38.014;-7.874;2022-07-06T02:47:52;100181.44;;;18.09;95.66
60676;BME280;46716;38.014;-7.874;2022-07-06T02:49:55;100189.16;;;18.14;95.50
60676;BME280;46716;38.014;-7.874;2022-07-06T02:51:56;100186.78;;;18.09;95.60
60676;BME280;46716;38.014;-7.874;2022-07-06T02:53:57;100180.69;;;18.07;95.72
60676;BME280;46716;38.014;-7.874;2022-07-06T02:55:58;100161.91;;;17.95;96.06
60676;BME280;46716;38.014;-7.874;2022-07-06T02:57:59;100179.53;;;17.98;96.49
60676;BME280;46716;38.014;-7.874;2022-07-06T03:00:01;100174.78;;;17.90;96.44
60676;BME280;46716;38.014;-7.874;2022-07-06T03:02:04;100173.38;;;17.85;97.05
60676;BME280;46716;38.014;-7.874;2022-07-06T03:04:05;100167.63;;;17.78;97.36
60676;BME280;46716;38.014;-7.874;2022-07-06T03:06:07;100167.63;;;17.78;97.91
60676;BME280;46716;38.014;-7.874;2022-07-06T03:08:08;100162.84;;;17.70;98.14
60676;BME280;46716;38.014;-7.874;2022-07-06T03:10:10;100177.34;;;17.79;97.83
60676;BME280;46716;38.014;-7.874;2022-07-06T03:12:11;100161.66;;;17.74;98.54
60676;BME280;46716;38.014;-7.874;2022-07-06T03:14:13;100174.91;;;17.76;98.14
60676;BME280;46716;38.014;-7.874;2022-07-06T03:16:17;100168.72;;;17.75;98.54
60676;BME280;46716;38.014;-7.874;2022-07-06T03:18:18;100179.91;;;17.80;98.29
60676;BME280;46716;38.014;-7.874;2022-07-06T03:20:19;100186.50;;;17.88;98.44
60676;BME280;46716;38.014;-7.874;2022-07-06T03:22:21;100180.84;;;17.92;98.23
60676;BME280;46716;38.014;-7.874;2022-07-06T03:24:22;100161.41;;;17.90;97.81
60676;BME280;46716;38.014;-7.874;2022-07-06T03:26:23;100169.44;;;17.90;97.61
60676;BME280;46716;38.014;-7.874;2022-07-06T03:28:24;100175.28;;;17.95;97.79
60676;BME280;46716;38.014;-7.874;2022-07-06T03:30:26;100169.53;;;17.89;97.93
60676;BME280;46716;38.014;-7.874;2022-07-06T03:32:29;100160.66;;;17.88;98.10
60676;BME280;46716;38.014;-7.874;2022-07-06T03:34:34;100146.28;;;17.78;98.12
60676;BME280;46716;38.014;-7.874;2022-07-06T03:36:35;100158.22;;;17.85;98.43
60676;BME280;46716;38.014;-7.874;2022-07-06T03:38:37;100154.78;;;17.83;98.60
60676;BME280;46716;38.014;-7.874;2022-07-06T03:40:38;100169.53;;;17.89;98.79
60676;BME280;46716;38.014;-7.874;2022-07-06T03:42:39;100159.09;;;17.86;98.63
60676;BME280;46716;38.014;-7.874;2022-07-06T03:44:43;100162.69;;;17.85;98.79
60676;BME280;46716;38.014;-7.874;2022-07-06T03:46:44;100158.75;;;17.77;98.73
60676;BME280;46716;38.014;-7.874;2022-07-06T03:48:46;100163.28;;;17.77;99.20
60676;BME280;46716;38.014;-7.874;2022-07-06T03:50:47;100161.03;;;17.70;99.81
60676;BME280;46716;38.014;-7.874;2022-07-06T03:52:48;100169.06;;;17.70;99.82
60676;BME280;46716;38.014;-7.874;2022-07-06T03:54:50;100167.22;;;17.71;100.00
60676;BME280;46716;38.014;-7.874;2022-07-06T03:56:56;100158.91;;;17.63;100.00
60676;BME280;46716;38.014;-7.874;2022-07-06T03:59:00;100171.19;;;17.65;100.00
60676;BME280;46716;38.014;-7.874;2022-07-06T04:01:03;100155.75;;;17.57;100.00
60676;BME280;46716;38.014;-7.874;2022-07-06T04:03:04;100175.16;;;17.60;100.00
60676;BME280;46716;38.014;-7.874;2022-07-06T04:05:11;100169.41;;;17.53;100.00
60676;BME280;46716;38.014;-7.874;2022-07-06T04:07:12;100176.88;;;17.48;100.00
60676;BME280;46716;38.014;-7.874;2022-07-06T04:09:14;100178.81;;;17.46;100.00
60676;BME280;46716;38.014;-7.874;2022-07-06T04:11:16;100168.56;;;17.39;100.00
60676;BME280;46716;38.014;-7.874;2022-07-06T04:13:17;100160.78;;;17.36;100.00
60676;BME280;46716;38.014;-7.874;2022-07-06T04:15:18;100183.41;;;17.43;100.00
60676;BME280;46716;38.014;-7.874;2022-07-06T04:17:19;100193.84;;;17.47;100.00
60676;BME280;46716;38.014;-7.874;2022-07-06T04:19:38;100199.19;;;17.47;100.00
60676;BME280;46716;38.014;-7.874;2022-07-06T04:21:39;100196.53;;;17.47;100.00
60676;BME280;46716;38.014;-7.874;2022-07-06T04:23:40;100183.59;;;17.40;100.00
60676;BME280;46716;38.014;-7.874;2022-07-06T04:25:43;100189.50;;;17.46;100.00
60676;BME280;46716;38.014;-7.874;2022-07-06T04:27:45;100190.88;;;17.51;100.00
60676;BME280;46716;38.014;-7.874;2022-07-06T04:29:47;100198.75;;;17.53;100.00
60676;BME280;46716;38.014;-7.874;2022-07-06T04:31:49;100197.78;;;17.54;100.00
60676;BME280;46716;38.014;-7.874;2022-07-06T04:33:50;100206.09;;;17.62;100.00
60676;BME280;46716;38.014;-7.874;2022-07-06T04:35:51;100210.28;;;17.66;100.00
60676;BME280;46716;38.014;-7.874;2022-07-06T04:37:53;100200.13;;;17.72;100.00
60676;BME280;46716;38.014;-7.874;2022-07-06T04:39:55;100193.19;;;17.69;100.00
60676;BME280;46716;38.014;-7.874;2022-07-06T04:41:57;100195.84;;;17.69;100.00
60676;BME280;46716;38.014;-7.874;2022-07-06T04:43:58;100204.94;;;17.66;100.00
60676;BME280;46716;38.014;-7.874;2022-07-06T04:45:59;100199.94;;;17.62;100.00
60676;BME280;46716;38.014;-7.874;2022-07-06T04:48:03;100216.34;;;17.68;100.00
60676;BME280;46716;38.014;-7.874;2022-07-06T04:50:05;100203.78;;;17.57;100.00
60676;BME280;46716;38.014;-7.874;2022-07-06T04:52:06;100208.25;;;17.57;100.00
60676;BME280;46716;38.014;-7.874;2022-07-06T04:54:08;100220.41;;;17.61;100.00
60676;BME280;46716;38.014;-7.874;2022-07-06T04:56:10;100201.44;;;17.53;100.00
60676;BME280;46716;38.014;-7.874;2022-07-06T04:58:13;100192.66;;;17.51;100.00
60676;BME280;46716;38.014;-7.874;2022-07-06T05:00:15;100210.94;;;17.57;100.00
60676;BME280;46716;38.014;-7.874;2022-07-06T05:02:17;100225.34;;;17.67;100.00
60676;BME280;46716;38.014;-7.874;2022-07-06T05:04:18;100217.44;;;17.66;100.00
60676;BME280;46716;38.014;-7.874;2022-07-06T05:06:20;100201.22;;;17.56;100.00
60676;BME280;46716;38.014;-7.874;2022-07-06T05:08:21;100222.44;;;17.70;100.00
60676;BME280;46716;38.014;-7.874;2022-07-06T05:10:23;100212.00;;;17.67;100.00
60676;BME280;46716;38.014;-7.874;2022-07-06T05:12:28;100203.44;;;17.62;100.00
60676;BME280;46716;38.014;-7.874;2022-07-06T05:14:28;100219.78;;;17.70;100.00
60676;BME280;46716;38.014;-7.874;2022-07-06T05:16:31;100214.53;;;17.69;100.00
60676;BME280;46716;38.014;-7.874;2022-07-06T05:18:32;100204.19;;;17.64;100.00
60676;BME280;46716;38.014;-7.874;2022-07-06T05:20:34;100206.09;;;17.62;100.00
60676;BME280;46716;38.014;-7.874;2022-07-06T05:22:35;100227.03;;;17.68;100.00
60676;BME280;46716;38.014;-7.874;2022-07-06T05:24:36;100223.09;;;17.61;100.00
60676;BME280;46716;38.014;-7.874;2022-07-06T05:26:37;100230.34;;;17.59;100.00
60676;BME280;46716;38.014;-7.874;2022-07-06T05:28:38;100241.25;;;17.56;100.00
60676;BME280;46716;38.014;-7.874;2022-07-06T05:30:43;100231.22;;;17.47;100.00
60676;BME280;46716;38.014;-7.874;2022-07-06T05:32:45;100245.53;;;17.59;100.00
60676;BME280;46716;38.014;-7.874;2022-07-06T05:34:46;100231.75;;;17.52;100.00
60676;BME280;46716;38.014;-7.874;2022-07-06T05:36:48;100244.97;;;17.53;100.00
60676;BME280;46716;38.014;-7.874;2022-07-06T05:38:49;100232.63;;;17.39;100.00
60676;BME280;46716;38.014;-7.874;2022-07-06T05:40:50;100230.78;;;17.27;100.00
60676;BME280;46716;38.014;-7.874;2022-07-06T05:42:51;100251.59;;;17.35;100.00
60676;BME280;46716;38.014;-7.874;2022-07-06T05:44:56;100241.34;;;17.28;100.00
60676;BME280;46716;38.014;-7.874;2022-07-06T05:46:58;100260.34;;;17.37;100.00
60676;BME280;46716;38.014;-7.874;2022-07-06T05:49:20;100256.28;;;17.31;100.00
60676;BME280;46716;38.014;-7.874;2022-07-06T05:51:39;100263.88;;;17.37;100.00
60676;BME280;46716;38.014;-7.874;2022-07-06T05:53:41;100273.47;;;17.40;100.00
60676;BME280;46716;38.014;-7.874;2022-07-06T05:55:42;100251.06;;;17.29;100.00
60676;BME280;46716;38.014;-7.874;2022-07-06T05:57:43;100266.13;;;17.43;100.00
60676;BME280;46716;38.014;-7.874;2022-07-06T05:59:44;100253.00;;;17.40;100.00
60676;BME280;46716;38.014;-7.874;2022-07-06T06:01:45;100274.13;;;17.56;100.00
60676;BME280;46716;38.014;-7.874;2022-07-06T06:03:51;100280.84;;;17.62;100.00
60676;BME280;46716;38.014;-7.874;2022-07-06T06:05:52;100288.97;;;17.61;100.00
60676;BME280;46716;38.014;-7.874;2022-07-06T06:07:54;100278.09;;;17.51;100.00
60676;BME280;46716;38.014;-7.874;2022-07-06T06:09:58;100269.88;;;17.41;100.00
60676;BME280;46716;38.014;-7.874;2022-07-06T06:12:00;100291.44;;;17.51;100.00
60676;BME280;46716;38.014;-7.874;2022-07-06T06:14:00;100286.09;;;17.51;100.00
60676;BME280;46716;38.014;-7.874;2022-07-06T06:16:02;100283.44;;;17.51;100.00
60676;BME280;46716;38.014;-7.874;2022-07-06T06:18:03;100277.31;;;17.49;100.00
60676;BME280;46716;38.014;-7.874;2022-07-06T06:20:06;100294.41;;;17.46;100.00
60676;BME280;46716;38.014;-7.874;2022-07-06T06:22:07;100286.19;;;17.36;100.00
60676;BME280;46716;38.014;-7.874;2022-07-06T06:24:08;100279.22;;;17.21;100.00
60676;BME280;46716;38.014;-7.874;2022-07-06T06:26:09;100292.47;;;17.22;100.00
60676;BME280;46716;38.014;-7.874;2022-07-06T06:28:11;100300.63;;;17.34;100.00
60676;BME280;46716;38.014;-7.874;2022-07-06T06:30:12;100304.78;;;17.38;100.00
60676;BME280;46716;38.014;-7.874;2022-07-06T06:32:13;100293.44;;;17.34;100.00
60676;BME280;46716;38.014;-7.874;2022-07-06T06:34:14;100279.00;;;17.24;100.00
60676;BME280;46716;38.014;-7.874;2022-07-06T06:36:15;100296.22;;;17.32;100.00
60676;BME280;46716;38.014;-7.874;2022-07-06T06:38:18;100307.34;;;17.39;100.00
60676;BME280;46716;38.014;-7.874;2022-07-06T06:40:19;100297.41;;;17.41;100.00
60676;BME280;46716;38.014;-7.874;2022-07-06T06:42:20;100299.22;;;17.54;100.00
60676;BME280;46716;38.014;-7.874;2022-07-06T06:44:23;100304.56;;;17.54;100.00
60676;BME280;46716;38.014;-7.874;2022-07-06T06:46:24;100306.38;;;17.53;100.00
60676;BME280;46716;38.014;-7.874;2022-07-06T06:48:25;100294.09;;;17.51;100.00
60676;BME280;46716;38.014;-7.874;2022-07-06T06:50:26;100309.59;;;17.59;100.00
60676;BME280;46716;38.014;-7.874;2022-07-06T06:52:27;100313.84;;;17.61;100.00
60676;BME280;46716;38.014;-7.874;2022-07-06T06:54:28;100306.06;;;17.58;100.00
60676;BME280;46716;38.014;-7.874;2022-07-06T06:56:29;100313.34;;;17.69;100.00
60676;BME280;46716;38.014;-7.874;2022-07-06T06:58:30;100299.22;;;17.67;100.00
60676;BME280;46716;38.014;-7.874;2022-07-06T07:00:31;100317.81;;;17.81;100.00
60676;BME280;46716;38.014;-7.874;2022-07-06T07:02:32;100327.00;;;17.90;100.00
60676;BME280;46716;38.014;-7.874;2022-07-06T07:04:33;100315.25;;;17.93;100.00
60676;BME280;46716;38.014;-7.874;2022-07-06T07:06:34;100301.78;;;17.94;100.00
60676;BME280;46716;38.014;-7.874;2022-07-06T07:08:35;100323.59;;;18.14;100.00
60676;BME280;46716;38.014;-7.874;2022-07-06T07:10:36;100321.44;;;18.19;100.00
60676;BME280;46716;38.014;-7.874;2022-07-06T07:12:46;100327.44;;;18.23;100.00
60676;BME280;46716;38.014;-7.874;2022-07-06T07:14:48;100333.41;;;18.27;100.00
60676;BME280;46716;38.014;-7.874;2022-07-06T07:16:49;100332.00;;;18.34;100.00
60676;BME280;46716;38.014;-7.874;2022-07-06T07:18:50;100322.50;;;18.30;100.00
60676;BME280;46716;38.014;-7.874;2022-07-06T07:20:51;100314.38;;;18.31;100.00
60676;BME280;46716;38.014;-7.874;2022-07-06T07:22:52;100338.69;;;18.53;100.00
60676;BME280;46716;38.014;-7.874;2022-07-06T07:24:53;100334.06;;;18.55;100.00
60676;BME280;46716;38.014;-7.874;2022-07-06T07:26:54;100331.94;;;18.60;100.00
60676;BME280;46716;38.014;-7.874;2022-07-06T07:28:55;100330.84;;;18.63;100.00
60676;BME280;46716;38.014;-7.874;2022-07-06T07:30:55;100343.34;;;18.62;100.00
60676;BME280;46716;38.014;-7.874;2022-07-06T07:32:56;100339.63;;;18.52;99.97
60676;BME280;46716;38.014;-7.874;2022-07-06T07:34:57;100344.03;;;18.53;100.00
60676;BME280;46716;38.014;-7.874;2022-07-06T07:36:58;100349.16;;;18.56;100.00
60676;BME280;46716;38.014;-7.874;2022-07-06T07:38:59;100342.19;;;18.53;100.00
60676;BME280;46716;38.014;-7.874;2022-07-06T07:41:00;100345.75;;;18.54;100.00
60676;BME280;46716;38.014;-7.874;2022-07-06T07:43:01;100337.38;;;18.58;100.00
60676;BME280;46716;38.014;-7.874;2022-07-06T07:45:02;100353.50;;;18.70;100.00
60676;BME280;46716;38.014;-7.874;2022-07-06T07:47:03;100351.47;;;18.74;99.98
60676;BME280;46716;38.014;-7.874;2022-07-06T07:49:04;100361.75;;;18.91;99.51
60676;BME280;46716;38.014;-7.874;2022-07-06T07:51:07;100358.75;;;18.96;99.07
60676;BME280;46716;38.014;-7.874;2022-07-06T07:53:08;100360.13;;;19.02;98.12
60676;BME280;46716;38.014;-7.874;2022-07-06T07:55:09;100357.56;;;19.00;97.51
60676;BME280;46716;38.014;-7.874;2022-07-06T07:57:10;100366.34;;;19.02;97.60
60676;BME280;46716;38.014;-7.874;2022-07-06T07:59:11;100353.28;;;18.98;97.54
60676;BME280;46716;38.014;-7.874;2022-07-06T08:01:13;100350.28;;;19.02;97.18
60676;BME280;46716;38.014;-7.874;2022-07-06T08:03:14;100364.06;;;19.09;97.31
60676;BME280;46716;38.014;-7.874;2022-07-06T08:05:15;100359.25;;;19.14;97.16
60676;BME280;46716;38.014;-7.874;2022-07-06T08:07:16;100365.19;;;19.18;96.96
60676;BME280;46716;38.014;-7.874;2022-07-06T08:09:17;100366.56;;;19.24;96.81
60676;BME280;46716;38.014;-7.874;2022-07-06T08:11:20;100363.31;;;19.31;96.14
60676;BME280;46716;38.014;-7.874;2022-07-06T08:13:21;100369.78;;;19.40;95.48
60676;BME280;46716;38.014;-7.874;2022-07-06T08:15:21;100359.81;;;19.42;95.19
60676;BME280;46716;38.014;-7.874;2022-07-06T08:17:22;100373.13;;;19.55;94.85
60676;BME280;46716;38.014;-7.874;2022-07-06T08:19:23;100372.53;;;19.63;94.31
60676;BME280;46716;38.014;-7.874;2022-07-06T08:21:24;100366.59;;;19.71;93.74
60676;BME280;46716;38.014;-7.874;2022-07-06T08:23:25;100370.22;;;19.70;91.43
60676;BME280;46716;38.014;-7.874;2022-07-06T08:25:26;100364.41;;;19.65;92.31
60676;BME280;46716;38.014;-7.874;2022-07-06T08:27:27;100364.03;;;19.69;92.39
60676;BME280;46716;38.014;-7.874;2022-07-06T08:29:28;100369.88;;;19.75;92.17
60676;BME280;46716;38.014;-7.874;2022-07-06T08:31:29;100369.00;;;19.74;92.00
60676;BME280;46716;38.014;-7.874;2022-07-06T08:33:30;100375.94;;;19.65;91.55
60676;BME280;46716;38.014;-7.874;2022-07-06T08:35:31;100378.00;;;19.62;91.86
60676;BME280;46716;38.014;-7.874;2022-07-06T08:37:31;100357.53;;;19.49;92.11
60676;BME280;46716;38.014;-7.874;2022-07-06T08:39:32;100379.47;;;19.66;92.30
60676;BME280;46716;38.014;-7.874;2022-07-06T08:41:34;100392.19;;;19.75;92.39
60676;BME280;46716;38.014;-7.874;2022-07-06T08:43:36;100373.78;;;19.70;91.94
60676;BME280;46716;38.014;-7.874;2022-07-06T08:45:38;100386.94;;;19.85;91.03
60676;BME280;46716;38.014;-7.874;2022-07-06T08:47:41;100387.28;;;19.80;90.88
60676;BME280;46716;38.014;-7.874;2022-07-06T08:49:42;100386.69;;;19.77;91.15
60676;BME280;46716;38.014;-7.874;2022-07-06T08:51:44;100394.97;;;19.85;90.95
60676;BME280;46716;38.014;-7.874;2022-07-06T08:53:46;100385.00;;;19.87;90.28
60676;BME280;46716;38.014;-7.874;2022-07-06T08:55:50;100382.56;;;19.84;90.92
60676;BME280;46716;38.014;-7.874;2022-07-06T08:57:51;100395.97;;;19.84;90.49
60676;BME280;46716;38.014;-7.874;2022-07-06T08:59:52;100381.81;;;19.82;90.33
60676;BME280;46716;38.014;-7.874;2022-07-06T09:01:53;100403.31;;;19.93;90.36
60676;BME280;46716;38.014;-7.874;2022-07-06T09:03:55;100400.34;;;19.85;90.53
60676;BME280;46716;38.014;-7.874;2022-07-06T09:06:01;100392.53;;;19.82;90.99
60676;BME280;46716;38.014;-7.874;2022-07-06T09:08:02;100387.41;;;19.79;91.05
60676;BME280;46716;38.014;-7.874;2022-07-06T09:10:05;100379.38;;;19.79;90.13
60676;BME280;46716;38.014;-7.874;2022-07-06T09:12:16;100392.66;;;19.80;90.52
60676;BME280;46716;38.014;-7.874;2022-07-06T09:14:18;100388.41;;;19.78;90.65
60676;BME280;46716;38.014;-7.874;2022-07-06T09:16:26;100386.94;;;19.85;90.69
60676;BME280;46716;38.014;-7.874;2022-07-06T09:18:30;100384.03;;;19.88;90.05
60676;BME280;46716;38.014;-7.874;2022-07-06T09:20:31;100394.44;;;20.04;89.61
60676;BME280;46716;38.014;-7.874;2022-07-06T09:22:32;100386.66;;;20.13;88.94
60676;BME280;46716;38.014;-7.874;2022-07-06T09:24:41;100381.31;;;20.13;88.01
60676;BME280;46716;38.014;-7.874;2022-07-06T09:26:43;100389.47;;;20.11;87.88
60676;BME280;46716;38.014;-7.874;2022-07-06T09:28:48;100393.59;;;20.04;89.25
60676;BME280;46716;38.014;-7.874;2022-07-06T09:30:49;100361.88;;;19.97;88.98
60676;BME280;46716;38.014;-7.874;2022-07-06T09:32:56;100394.69;;;20.35;87.67
60676;BME280;46716;38.014;-7.874;2022-07-06T09:34:57;100393.75;;;20.37;86.89
60676;BME280;46716;38.014;-7.874;2022-07-06T09:37:02;100396.03;;;20.53;87.05
60676;BME280;46716;38.014;-7.874;2022-07-06T09:39:25;100400.78;;;20.49;86.16
60676;BME280;46716;38.014;-7.874;2022-07-06T09:41:32;100384.47;;;20.41;85.99
60676;BME280;46716;38.014;-7.874;2022-07-06T09:43:34;100394.66;;;20.70;85.87
60676;BME280;46716;38.014;-7.874;2022-07-06T09:45:35;100393.78;;;20.92;85.85
60676;BME280;46716;38.014;-7.874;2022-07-06T09:47:37;100396.38;;;21.27;83.19
60676;BME280;46716;38.014;-7.874;2022-07-06T09:49:39;100395.66;;;21.25;82.35
60676;BME280;46716;38.014;-7.874;2022-07-06T09:51:40;100391.22;;;21.35;81.46
60676;BME280;46716;38.014;-7.874;2022-07-06T09:53:42;100405.66;;;21.22;81.83
60676;BME280;46716;38.014;-7.874;2022-07-06T09:55:48;100407.88;;;21.50;82.19
60676;BME280;46716;38.014;-7.874;2022-07-06T09:57:53;100403.66;;;21.90;80.95
60676;BME280;46716;38.014;-7.874;2022-07-06T09:59:55;100381.16;;;22.22;78.04
60676;BME280;46716;38.014;-7.874;2022-07-06T10:01:58;100393.69;;;22.33;76.99
60676;BME280;46716;38.014;-7.874;2022-07-06T10:03:59;100377.06;;;22.59;77.34
60676;BME280;46716;38.014;-7.874;2022-07-06T10:06:01;100389.34;;;23.03;74.81
60676;BME280;46716;38.014;-7.874;2022-07-06T10:08:01;100381.41;;;23.61;72.74
60676;BME280;46716;38.014;-7.874;2022-07-06T10:10:07;100386.38;;;24.33;71.11
60676;BME280;46716;38.014;-7.874;2022-07-06T10:12:09;100386.66;;;24.58;66.74
60676;BME280;46716;38.014;-7.874;2022-07-06T10:14:12;100362.84;;;24.72;66.29
60676;BME280;46716;38.014;-7.874;2022-07-06T10:16:15;100375.03;;;24.76;65.80
60676;BME280;46716;38.014;-7.874;2022-07-06T10:18:17;100355.69;;;24.81;65.21
60676;BME280;46716;38.014;-7.874;2022-07-06T10:20:18;100374.78;;;24.97;64.18
60676;BME280;46716;38.014;-7.874;2022-07-06T10:22:20;100367.38;;;25.36;64.04
60676;BME280;46716;38.014;-7.874;2022-07-06T10:24:21;100388.03;;;25.82;62.82
60676;BME280;46716;38.014;-7.874;2022-07-06T10:26:23;100374.81;;;25.79;61.60